createdAt,value
2022-09-03T00:00:53.049Z,81.03
2022-09-03T00:01:53.142Z,80.93
2022-09-03T00:02:53.055Z,81.09
2022-09-03T00:03:53.100Z,81.34
2022-09-03T00:04:53.011Z,81.39
2022-09-03T00:05:54.039Z,81.32
2022-09-03T00:06:52.959Z,81.55
2022-09-03T00:07:53.086Z,81.29
2022-09-03T00:08:53.006Z,81.23
2022-09-03T00:09:52.939Z,80.95
2022-09-03T00:10:52.932Z,80.89
2022-09-03T00:11:53.030Z,81.17
2022-09-03T00:12:52.890Z,81.04
2022-09-03T00:13:53.939Z,81.14
2022-09-03T00:14:52.897Z,81.11
2022-09-03T00:15:52.936Z,81.32
2022-09-03T00:16:52.851Z,81.35
2022-09-03T00:17:53.919Z,81.40
2022-09-03T00:18:52.839Z,81.33
2022-09-03T00:19:52.809Z,81.29
2022-09-03T00:20:52.832Z,80.97
2022-09-03T00:21:52.820Z,80.88
2022-09-03T00:22:52.789Z,80.70
2022-09-03T00:23:52.923Z,80.50
2022-09-03T00:24:52.781Z,80.37
2022-09-03T00:25:52.749Z,80.42
2022-09-03T00:26:52.699Z,80.66
2022-09-03T00:27:53.860Z,80.64
2022-09-03T00:28:52.680Z,80.73
2022-09-03T00:29:53.711Z,80.64
2022-09-03T00:30:52.736Z,80.93
2022-09-03T00:31:52.692Z,81.19
2022-09-03T00:32:52.673Z,81.22
2022-09-03T00:33:52.701Z,81.29
2022-09-03T00:34:52.609Z,81.28
2022-09-03T00:35:53.641Z,81.71
2022-09-03T00:36:52.571Z,81.37
2022-09-03T00:37:52.664Z,81.54
2022-09-03T00:38:52.539Z,81.50
2022-09-03T00:39:53.683Z,81.40
2022-09-03T00:40:52.591Z,81.48
2022-09-03T00:41:53.599Z,81.55
2022-09-03T00:42:52.489Z,81.69
2022-09-03T00:43:52.640Z,81.67
2022-09-03T00:44:52.490Z,81.80
2022-09-03T00:45:52.491Z,81.62
2022-09-03T00:46:52.522Z,81.80
2022-09-03T00:47:52.507Z,81.64
2022-09-03T00:48:52.400Z,81.53
2022-09-03T00:49:52.455Z,81.85
2022-09-03T00:50:52.398Z,81.70
2022-09-03T00:51:52.429Z,81.43
2022-09-03T00:52:52.422Z,81.38
2022-09-03T00:53:52.439Z,81.32
2022-09-03T00:54:52.324Z,81.21
2022-09-03T00:55:53.381Z,81.36
2022-09-03T00:56:52.339Z,81.33
2022-09-03T00:57:54.369Z,81.36
2022-09-03T00:58:52.330Z,81.38
2022-09-03T00:59:52.293Z,81.36
2022-09-03T01:00:52.240Z,81.25
2022-09-03T01:01:53.461Z,81.30
2022-09-03T01:02:52.325Z,81.18
2022-09-03T01:03:53.236Z,80.87
2022-09-03T01:04:52.308Z,80.99
2022-09-03T01:05:52.223Z,81.10
2022-09-03T01:06:52.160Z,81.54
2022-09-03T01:07:53.261Z,81.35
2022-09-03T01:08:52.163Z,81.31
2022-09-03T01:09:52.149Z,81.42
2022-09-03T01:10:52.180Z,81.39
2022-09-03T01:11:52.169Z,80.96
2022-09-03T01:12:52.080Z,80.76
2022-09-03T01:13:52.289Z,80.86
2022-09-03T01:14:52.088Z,81.23
2022-09-03T01:15:52.158Z,81.28
2022-09-03T01:16:52.109Z,81.04
2022-09-03T01:17:52.106Z,80.93
2022-09-03T01:18:51.999Z,80.95
2022-09-03T01:19:52.047Z,81.15
2022-09-03T01:20:51.993Z,81.37
2022-09-03T01:21:52.082Z,81.46
2022-09-03T01:22:51.946Z,81.60
2022-09-03T01:23:52.970Z,81.48
2022-09-03T01:24:51.921Z,81.33
2022-09-03T01:25:52.039Z,81.30
2022-09-03T01:26:51.965Z,81.32
2022-09-03T01:27:51.910Z,81.39
2022-09-03T01:28:51.859Z,81.14
2022-09-03T01:29:52.909Z,81.12
2022-09-03T01:30:51.917Z,80.83
2022-09-03T01:31:52.029Z,81.19
2022-09-03T01:32:51.849Z,81.25
2022-09-03T01:33:51.869Z,81.11
2022-09-03T01:34:51.838Z,81.24
2022-09-03T01:35:52.849Z,81.35
2022-09-03T01:36:51.760Z,81.38
2022-09-03T01:37:51.850Z,81.22
2022-09-03T01:38:51.767Z,81.52
2022-09-03T01:39:51.840Z,81.36
2022-09-03T01:40:51.771Z,81.59
2022-09-03T01:41:51.770Z,81.69
2022-09-03T01:42:51.671Z,81.75
2022-09-03T01:43:51.820Z,81.54
2022-09-03T01:44:53.085Z,81.47
2022-09-03T01:45:52.383Z,81.57
2022-09-03T01:46:51.686Z,81.74
2022-09-03T01:47:51.709Z,81.80
2022-09-03T01:48:51.600Z,81.94
2022-09-03T01:49:52.652Z,82.11
2022-09-03T01:50:51.569Z,82.03
2022-09-03T01:51:51.725Z,81.78
2022-09-03T01:52:51.599Z,82.05
2022-09-03T01:53:52.589Z,81.89
2022-09-03T01:54:51.567Z,81.89
2022-09-03T01:55:51.560Z,81.59
2022-09-03T01:56:51.489Z,81.80
2022-09-03T01:57:51.690Z,81.73
2022-09-03T01:58:51.510Z,82.04
2022-09-03T01:59:51.490Z,81.98
2022-09-03T02:00:51.531Z,81.68
2022-09-03T02:01:51.592Z,81.79
2022-09-03T02:02:51.714Z,81.90
2022-09-03T02:03:51.539Z,82.25
2022-09-03T02:04:51.401Z,82.18
2022-09-03T02:05:51.431Z,81.82
2022-09-03T02:06:51.349Z,81.73
2022-09-03T02:07:51.447Z,81.65
2022-09-03T02:08:51.329Z,81.59
2022-09-03T02:09:51.567Z,81.63
2022-09-03T02:10:51.314Z,81.86
2022-09-03T02:11:51.369Z,81.35
2022-09-03T02:12:51.276Z,81.67
2022-09-03T02:13:51.322Z,81.79
2022-09-03T02:14:51.270Z,81.82
2022-09-03T02:15:51.417Z,81.94
2022-09-03T02:16:51.219Z,81.87
2022-09-03T02:17:52.229Z,81.78
2022-09-03T02:18:51.190Z,81.99
2022-09-03T02:19:51.282Z,81.75
2022-09-03T02:20:51.204Z,81.89
2022-09-03T02:21:51.214Z,81.88
2022-09-03T02:22:51.141Z,82.04
2022-09-03T02:23:51.163Z,81.89
2022-09-03T02:24:51.112Z,81.92
2022-09-03T02:25:51.211Z,82.01
2022-09-03T02:26:51.099Z,82.10
2022-09-03T02:27:51.119Z,81.96
2022-09-03T02:28:51.060Z,81.62
2022-09-03T02:29:51.161Z,81.80
2022-09-03T02:30:51.120Z,81.70
2022-09-03T02:31:51.197Z,81.78
2022-09-03T02:32:51.080Z,81.68
2022-09-03T02:33:51.020Z,81.93
2022-09-03T02:34:50.975Z,81.92
2022-09-03T02:35:51.054Z,82.07
2022-09-03T02:36:50.949Z,82.34
2022-09-03T02:37:51.059Z,82.49
2022-09-03T02:38:50.980Z,82.52
2022-09-03T02:39:52.069Z,82.34
2022-09-03T02:40:50.916Z,82.31
2022-09-03T02:41:50.971Z,82.68
2022-09-03T02:42:50.871Z,82.54
2022-09-03T02:43:50.892Z,82.34
2022-09-03T02:44:50.919Z,82.47
2022-09-03T02:45:50.935Z,82.26
2022-09-03T02:46:50.889Z,82.22
2022-09-03T02:47:50.949Z,82.15
2022-09-03T02:48:50.810Z,82.12
2022-09-03T02:49:50.880Z,82.10
2022-09-03T02:50:50.830Z,82.06
2022-09-03T02:51:50.847Z,81.99
2022-09-03T02:52:50.749Z,82.49
2022-09-03T02:53:50.956Z,82.47
2022-09-03T02:54:50.740Z,82.38
2022-09-03T02:55:50.821Z,82.40
2022-09-03T02:56:50.730Z,82.30
2022-09-03T02:58:11.779Z,82.43
2022-09-03T02:58:50.659Z,82.51
2022-09-03T02:59:50.829Z,82.34
2022-09-03T03:00:50.718Z,82.07
2022-09-03T03:01:51.758Z,82.14
2022-09-03T03:02:50.700Z,82.28
2022-09-03T03:03:50.622Z,82.26
2022-09-03T03:04:50.580Z,82.31
2022-09-03T03:05:51.660Z,82.21
2022-09-03T03:06:50.629Z,82.23
2022-09-03T03:07:50.653Z,82.06
2022-09-03T03:08:50.585Z,82.39
2022-09-03T03:09:51.590Z,82.21
2022-09-03T03:10:50.500Z,82.60
2022-09-03T03:11:50.697Z,82.58
2022-09-03T03:12:50.571Z,82.13
2022-09-03T03:13:50.489Z,82.26
2022-09-03T03:14:50.447Z,82.35
2022-09-03T03:15:50.611Z,82.28
2022-09-03T03:16:50.481Z,82.21
2022-09-03T03:17:50.426Z,82.14
2022-09-03T03:18:50.438Z,82.15
2022-09-03T03:19:50.432Z,82.20
2022-09-03T03:20:50.359Z,82.24
2022-09-03T03:21:50.458Z,82.42
2022-09-03T03:22:50.352Z,82.42
2022-09-03T03:23:50.361Z,82.48
2022-09-03T03:24:50.389Z,82.18
2022-09-03T03:25:50.377Z,82.00
2022-09-03T03:26:50.286Z,82.10
2022-09-03T03:27:51.316Z,82.39
2022-09-03T03:28:50.259Z,82.18
2022-09-03T03:29:50.308Z,82.14
2022-09-03T03:30:50.391Z,81.79
2022-09-03T03:31:50.317Z,81.94
2022-09-03T03:32:50.207Z,81.96
2022-09-03T03:33:50.328Z,81.87
2022-09-03T03:34:50.180Z,81.96
2022-09-03T03:35:52.237Z,81.81
2022-09-03T03:36:50.229Z,82.03
2022-09-03T03:37:50.158Z,82.51
2022-09-03T03:38:50.118Z,82.14
2022-09-03T03:39:50.208Z,82.33
2022-09-03T03:40:50.099Z,82.32
2022-09-03T03:41:51.108Z,82.11
2022-09-03T03:42:50.118Z,81.81
2022-09-03T03:43:50.090Z,81.76
2022-09-03T03:44:50.040Z,81.71
2022-09-03T03:45:51.232Z,81.95
2022-09-03T03:46:50.019Z,81.67
2022-09-03T03:47:50.070Z,81.86
2022-09-03T03:48:50.007Z,81.53
2022-09-03T03:49:50.087Z,81.32
2022-09-03T03:50:50.041Z,81.57
2022-09-03T03:51:50.048Z,81.45
2022-09-03T03:52:49.941Z,81.36
2022-09-03T03:53:50.988Z,81.35
2022-09-03T03:54:49.930Z,81.73
2022-09-03T03:55:50.097Z,81.37
2022-09-03T03:56:55.587Z,81.44
2022-09-03T03:57:50.869Z,81.74
2022-09-03T03:58:49.898Z,81.88
2022-09-03T03:59:49.906Z,81.65
2022-09-03T04:00:50.012Z,81.67
2022-09-03T04:01:49.872Z,81.79
2022-09-03T04:02:49.875Z,82.00
2022-09-03T04:03:49.798Z,82.02
2022-09-03T04:04:50.872Z,82.00
2022-09-03T04:05:49.781Z,81.77
2022-09-03T04:06:50.878Z,82.19
2022-09-03T04:07:49.739Z,82.35
2022-09-03T04:08:49.795Z,82.37
2022-09-03T04:09:49.710Z,82.39
2022-09-03T04:10:50.820Z,82.55
2022-09-03T04:11:49.680Z,82.13
2022-09-03T04:12:49.751Z,82.48
2022-09-03T04:13:49.687Z,82.39
2022-09-03T04:14:49.770Z,82.30
2022-09-03T04:15:49.629Z,82.55
2022-09-03T04:16:49.767Z,82.43
2022-09-03T04:17:49.629Z,82.20
2022-09-03T04:18:49.688Z,82.10
2022-09-03T04:19:49.577Z,81.77
2022-09-03T04:20:49.649Z,81.55
2022-09-03T04:21:49.547Z,81.78
2022-09-03T04:22:52.061Z,81.60
2022-09-03T04:23:49.593Z,81.90
2022-09-03T04:24:49.577Z,81.99
2022-09-03T04:25:49.520Z,82.18
2022-09-03T04:26:49.619Z,81.84
2022-09-03T04:27:49.459Z,82.04
2022-09-03T04:28:50.588Z,81.76
2022-09-03T04:29:49.508Z,81.79
2022-09-03T04:30:49.530Z,81.84
2022-09-03T04:31:49.449Z,81.32
2022-09-03T04:32:49.482Z,81.48
2022-09-03T04:33:49.388Z,81.63
2022-09-03T04:34:50.468Z,81.66
2022-09-03T04:35:49.397Z,81.79
2022-09-03T04:36:52.825Z,81.87
2022-09-03T04:37:49.479Z,81.78
2022-09-03T04:38:49.376Z,82.07
2022-09-03T04:39:49.359Z,81.85
2022-09-03T04:40:49.439Z,81.82
2022-09-03T04:41:49.315Z,82.11
2022-09-03T04:42:49.299Z,82.07
2022-09-03T04:43:51.242Z,82.25
2022-09-03T04:44:49.309Z,82.29
2022-09-03T04:45:49.261Z,82.39
2022-09-03T04:46:49.379Z,82.48
2022-09-03T04:47:49.219Z,82.44
2022-09-03T04:48:49.238Z,82.36
2022-09-03T04:49:49.239Z,82.75
2022-09-03T04:50:49.259Z,82.63
2022-09-03T04:51:49.147Z,82.64
2022-09-03T04:52:51.335Z,82.44
2022-09-03T04:53:49.178Z,82.81
2022-09-03T04:54:49.169Z,83.68
2022-09-03T04:55:49.188Z,83.15
2022-09-03T04:56:50.279Z,82.78
2022-09-03T04:57:49.069Z,82.34
2022-09-03T04:58:51.076Z,83.20
2022-09-03T04:59:49.048Z,82.80
2022-09-03T05:00:49.186Z,83.61
2022-09-03T05:01:49.071Z,82.74
2022-09-03T05:02:51.159Z,82.80
2022-09-03T05:03:48.979Z,82.38
2022-09-03T05:04:49.151Z,82.51
2022-09-03T05:05:52.397Z,83.08
2022-09-03T05:06:48.959Z,83.28
2022-09-03T05:07:48.949Z,83.30
2022-09-03T05:08:48.973Z,83.61
2022-09-03T05:09:48.938Z,83.17
2022-09-03T05:10:49.015Z,83.37
2022-09-03T05:11:48.897Z,83.84
2022-09-03T05:12:49.960Z,83.74
2022-09-03T05:13:48.850Z,83.67
2022-09-03T05:14:48.918Z,83.14
2022-09-03T05:15:48.857Z,83.36
2022-09-03T05:16:52.758Z,82.82
2022-09-03T05:17:48.837Z,82.60
2022-09-03T05:18:48.841Z,83.61
2022-09-03T05:19:48.778Z,82.48
2022-09-03T05:20:48.857Z,82.43
2022-09-03T05:21:48.758Z,82.46
2022-09-03T05:22:48.896Z,82.45
2022-09-03T05:23:48.747Z,82.60
2022-09-03T05:24:48.785Z,82.52
2022-09-03T05:25:48.747Z,82.78
2022-09-03T05:26:49.788Z,83.21
2022-09-03T05:27:48.658Z,83.38
2022-09-03T05:28:48.725Z,83.16
2022-09-03T05:29:48.640Z,83.01
2022-09-03T05:30:48.719Z,82.68
2022-09-03T05:31:48.701Z,82.64
2022-09-03T05:32:48.698Z,82.55
2022-09-03T05:33:48.579Z,82.48
2022-09-03T05:34:49.674Z,81.69
2022-09-03T05:35:48.568Z,81.64
2022-09-03T05:36:48.558Z,81.57
2022-09-03T05:37:48.571Z,81.69
2022-09-03T05:38:53.858Z,81.39
2022-09-03T05:39:48.558Z,80.81
2022-09-03T05:40:48.719Z,81.04
2022-09-03T05:41:48.489Z,80.90
2022-09-03T05:42:48.499Z,80.77
2022-09-03T05:43:48.440Z,80.55
2022-09-03T05:44:48.579Z,80.91
2022-09-03T05:45:48.432Z,80.99
2022-09-03T05:46:48.499Z,81.10
2022-09-03T05:47:48.451Z,80.66
2022-09-03T05:48:48.449Z,80.63
2022-09-03T05:49:48.359Z,80.80
2022-09-03T05:50:48.518Z,80.92
2022-09-03T05:51:48.330Z,80.61
2022-09-03T05:52:48.371Z,80.42
2022-09-03T05:53:48.426Z,79.79
2022-09-03T05:54:48.387Z,80.07
2022-09-03T05:55:48.279Z,79.63
2022-09-03T05:56:49.411Z,79.92
2022-09-03T05:57:48.250Z,80.18
2022-09-03T05:58:48.308Z,79.12
2022-09-03T05:59:48.290Z,79.00
2022-09-03T06:00:48.328Z,79.02
2022-09-03T06:01:50.936Z,79.80
2022-09-03T06:02:48.386Z,79.28
2022-09-03T06:03:48.275Z,78.67
2022-09-03T06:04:48.167Z,78.62
2022-09-03T06:05:48.310Z,79.20
2022-09-03T06:06:48.150Z,78.37
2022-09-03T06:07:48.242Z,78.16
2022-09-03T06:08:48.159Z,78.50
2022-09-03T06:09:48.189Z,78.35
2022-09-03T06:10:48.079Z,78.64
2022-09-03T06:12:09.097Z,78.17
2022-09-03T06:12:48.069Z,78.08
2022-09-03T06:13:48.189Z,77.91
2022-09-03T06:14:48.050Z,77.88
2022-09-03T06:15:48.129Z,78.21
2022-09-03T06:16:48.031Z,78.17
2022-09-03T06:17:48.047Z,77.36
2022-09-03T06:18:47.972Z,77.21
2022-09-03T06:19:49.030Z,77.26
2022-09-03T06:20:48.012Z,77.19
2022-09-03T06:21:47.974Z,76.10
2022-09-03T06:22:47.911Z,76.57
2022-09-03T06:23:48.039Z,76.64
2022-09-03T06:24:47.891Z,76.37
2022-09-03T06:25:49.029Z,76.32
2022-09-03T06:26:47.886Z,76.10
2022-09-03T06:27:48.057Z,76.11
2022-09-03T06:28:47.838Z,75.72
2022-09-03T06:29:48.041Z,75.07
2022-09-03T06:30:47.821Z,75.10
2022-09-03T06:31:51.182Z,74.79
2022-09-03T06:32:47.841Z,74.83
2022-09-03T06:33:49.900Z,74.47
2022-09-03T06:34:47.751Z,74.10
2022-09-03T06:35:48.862Z,73.87
2022-09-03T06:36:47.759Z,74.47
2022-09-03T06:37:47.895Z,74.55
2022-09-03T06:38:47.711Z,74.86
2022-09-03T06:39:48.826Z,74.12
2022-09-03T06:40:47.672Z,74.16
2022-09-03T06:41:48.762Z,74.69
2022-09-03T06:42:47.684Z,74.65
2022-09-03T06:43:47.811Z,74.60
2022-09-03T06:44:47.662Z,74.80
2022-09-03T06:45:47.756Z,74.68
2022-09-03T06:46:47.592Z,73.87
2022-09-03T06:47:47.851Z,73.36
2022-09-03T06:48:47.602Z,73.72
2022-09-03T06:49:47.841Z,73.91
2022-09-03T06:50:47.599Z,73.91
2022-09-03T06:51:47.576Z,73.49
2022-09-03T06:52:47.522Z,74.78
2022-09-03T06:53:47.571Z,74.40
2022-09-03T06:54:47.579Z,74.38
2022-09-03T06:55:47.482Z,74.49
2022-09-03T06:57:57.624Z,74.87
2022-09-03T06:58:57.354Z,74.87
2022-09-03T06:59:57.437Z,74.47
2022-09-03T07:00:57.416Z,75.21
2022-09-03T07:01:57.645Z,74.06
2022-09-03T07:02:57.299Z,73.71
2022-09-03T07:03:58.378Z,73.62
2022-09-03T07:04:57.294Z,73.21
2022-09-03T07:05:57.670Z,72.91
2022-09-03T07:06:57.237Z,73.37
2022-09-03T07:08:19.380Z,73.65
2022-09-03T07:08:57.249Z,73.89
2022-09-03T07:09:57.198Z,74.43
2022-09-03T07:11:18.279Z,73.18
2022-09-03T07:11:57.167Z,73.81
2022-09-03T07:12:57.167Z,72.56
2022-09-03T07:13:59.447Z,72.41
2022-09-03T07:14:57.142Z,72.15
2022-09-03T07:15:57.308Z,71.93
2022-09-03T07:16:57.137Z,73.35
2022-09-03T07:17:57.205Z,71.54
2022-09-03T07:18:57.076Z,71.75
2022-09-03T07:19:57.139Z,71.76
2022-09-03T07:20:57.038Z,71.52
2022-09-03T07:21:57.277Z,73.06
2022-09-03T07:22:57.029Z,71.25
2022-09-03T07:23:58.127Z,71.34
2022-09-03T07:24:56.989Z,70.86
2022-09-03T07:25:57.148Z,71.13
2022-09-03T07:26:56.960Z,71.30
2022-09-03T07:27:57.020Z,71.11
2022-09-03T07:28:56.964Z,70.88
2022-09-03T07:29:58.043Z,71.20
2022-09-03T07:30:56.961Z,70.85
2022-09-03T07:31:57.082Z,71.92
2022-09-03T07:32:56.883Z,71.60
2022-09-03T07:33:57.082Z,71.17
2022-09-03T07:34:56.861Z,70.34
2022-09-03T07:35:57.941Z,71.24
2022-09-03T07:36:56.822Z,71.49
2022-09-03T07:37:56.875Z,70.99
2022-09-03T07:38:56.801Z,70.39
2022-09-03T07:39:56.999Z,69.91
2022-09-03T07:40:56.769Z,70.36
2022-09-03T07:41:56.958Z,70.77
2022-09-03T07:42:56.820Z,69.95
2022-09-03T07:43:57.932Z,70.40
2022-09-03T07:44:56.720Z,70.78
2022-09-03T07:45:56.845Z,70.32
2022-09-03T07:46:56.740Z,69.58
2022-09-03T07:47:58.823Z,70.19
2022-09-03T07:48:56.699Z,69.68
2022-09-03T07:49:56.770Z,69.81
2022-09-03T07:50:56.634Z,69.54
2022-09-03T07:51:56.750Z,70.55
2022-09-03T07:52:56.623Z,69.44
2022-09-03T07:53:56.631Z,69.27
2022-09-03T07:54:56.680Z,70.06
2022-09-03T07:55:56.673Z,69.86
2022-09-03T07:56:56.551Z,68.84
2022-09-03T07:57:59.830Z,69.14
2022-09-03T07:58:56.531Z,68.37
2022-09-03T07:59:56.668Z,68.68
2022-09-03T08:00:56.591Z,68.32
2022-09-03T08:01:56.675Z,68.76
2022-09-03T08:02:56.480Z,67.60
2022-09-03T08:03:58.743Z,67.94
2022-09-03T08:04:56.461Z,67.79
2022-09-03T08:05:56.562Z,68.78
2022-09-03T08:06:56.458Z,68.49
2022-09-03T08:07:57.516Z,69.53
2022-09-03T08:08:58.771Z,67.41
2022-09-03T08:09:57.393Z,67.43
2022-09-03T08:10:56.485Z,67.83
2022-09-03T08:11:56.342Z,67.97
2022-09-03T08:12:56.415Z,69.10
2022-09-03T08:13:56.332Z,68.85
2022-09-03T08:14:56.512Z,68.48
2022-09-03T08:15:56.365Z,69.49
2022-09-03T08:16:56.384Z,68.24
2022-09-03T08:18:03.493Z,67.23
2022-09-03T08:18:57.253Z,66.99
2022-09-03T08:19:56.403Z,66.96
2022-09-03T08:20:56.254Z,65.97
2022-09-03T08:21:57.264Z,66.92
2022-09-03T08:22:56.263Z,67.16
2022-09-03T08:23:57.293Z,67.05
2022-09-03T08:24:56.253Z,67.17
2022-09-03T08:25:56.244Z,67.17
2022-09-03T08:26:56.184Z,67.47
2022-09-03T08:27:57.155Z,66.62
2022-09-03T08:28:56.123Z,66.99
2022-09-03T08:29:57.247Z,65.95
2022-09-03T08:30:56.156Z,65.24
2022-09-03T08:31:56.314Z,65.89
2022-09-03T08:32:56.088Z,66.46
2022-09-03T08:33:56.206Z,66.54
2022-09-03T08:34:56.114Z,66.11
2022-09-03T08:35:56.200Z,65.09
2022-09-03T08:36:56.064Z,65.81
2022-09-03T08:37:57.078Z,66.73
2022-09-03T08:38:56.013Z,65.84
2022-09-03T08:39:58.297Z,65.87
2022-09-03T08:40:56.026Z,66.51
2022-09-03T08:41:56.123Z,65.03
2022-09-03T08:42:55.935Z,67.18
2022-09-03T08:43:57.114Z,64.86
2022-09-03T08:44:55.937Z,65.59
2022-09-03T08:45:58.087Z,65.29
2022-09-03T08:46:55.920Z,66.24
2022-09-03T08:47:55.896Z,65.80
2022-09-03T08:48:55.900Z,64.80
2022-09-03T08:49:55.957Z,63.75
2022-09-03T08:50:55.824Z,63.52
2022-09-03T08:51:55.988Z,64.44
2022-09-03T08:52:55.859Z,64.48
2022-09-03T08:53:55.889Z,65.22
2022-09-03T08:54:55.791Z,63.67
2022-09-03T08:55:56.908Z,64.90
2022-09-03T08:56:55.749Z,64.14
2022-09-03T08:57:55.917Z,63.54
2022-09-03T08:58:55.779Z,62.91
2022-09-03T08:59:55.799Z,62.62
2022-09-03T09:00:55.710Z,63.43
2022-09-03T09:01:55.947Z,63.52
2022-09-03T09:02:55.717Z,65.19
2022-09-03T09:03:55.816Z,62.64
2022-09-03T09:04:55.731Z,63.23
2022-09-03T09:05:55.832Z,63.15
2022-09-03T09:06:55.639Z,63.78
2022-09-03T09:07:55.639Z,63.34
2022-09-03T09:08:55.590Z,62.91
2022-09-03T09:09:55.725Z,61.98
2022-09-03T09:10:55.637Z,62.64
2022-09-03T09:11:55.659Z,63.39
2022-09-03T09:12:55.532Z,63.44
2022-09-03T09:14:16.559Z,64.32
2022-09-03T09:14:55.500Z,63.21
2022-09-03T09:15:56.676Z,62.29
2022-09-03T09:16:55.541Z,62.22
2022-09-03T09:17:56.700Z,61.60
2022-09-03T09:18:55.450Z,61.33
2022-09-03T09:19:55.592Z,61.77
2022-09-03T09:20:55.422Z,60.65
2022-09-03T09:21:55.639Z,61.67
2022-09-03T09:22:55.519Z,60.19
2022-09-03T09:23:55.520Z,61.06
2022-09-03T09:24:55.361Z,60.07
2022-09-03T09:25:56.480Z,61.08
2022-09-03T09:26:55.341Z,61.12
2022-09-03T09:27:55.491Z,60.32
2022-09-03T09:28:55.413Z,61.76
2022-09-03T09:30:16.370Z,60.81
2022-09-03T09:30:55.357Z,61.30
2022-09-03T09:32:16.442Z,59.98
2022-09-03T09:32:55.260Z,58.86
2022-09-03T09:33:55.502Z,59.30
2022-09-03T09:34:55.370Z,58.74
2022-09-03T09:35:56.262Z,58.47
2022-09-03T09:36:55.204Z,59.62
2022-09-03T09:37:55.322Z,59.90
2022-09-03T09:38:55.203Z,59.34
2022-09-03T09:39:55.482Z,58.27
2022-09-03T09:40:55.162Z,58.70
2022-09-03T09:41:55.165Z,59.19
2022-09-03T09:42:55.133Z,60.54
2022-09-03T09:43:55.274Z,60.73
2022-09-03T09:44:55.131Z,58.80
2022-09-03T09:45:55.312Z,58.73
2022-09-03T09:46:55.134Z,61.37
2022-09-03T09:47:55.149Z,59.40
2022-09-03T09:48:55.076Z,58.15
2022-09-03T09:49:56.223Z,57.54
2022-09-03T09:50:55.044Z,58.35
2022-09-03T09:51:55.025Z,58.18
2022-09-03T09:52:58.657Z,57.95
2022-09-03T09:53:54.986Z,58.80
2022-09-03T09:54:55.175Z,58.12
2022-09-03T09:55:54.968Z,57.86
2022-09-03T09:56:55.115Z,60.03
2022-09-03T09:57:54.935Z,59.08
2022-09-03T09:58:54.989Z,58.28
2022-09-03T09:59:54.905Z,58.32
2022-09-03T10:00:55.123Z,56.98
2022-09-03T10:01:55.016Z,58.49
2022-09-03T10:02:56.044Z,57.27
2022-09-03T10:03:54.846Z,57.83
2022-09-03T10:04:54.995Z,58.34
2022-09-03T10:05:54.817Z,58.04
2022-09-03T10:06:55.045Z,57.59
2022-09-03T10:07:54.860Z,55.79
2022-09-03T10:08:54.863Z,57.28
2022-09-03T10:09:54.765Z,57.00
2022-09-03T10:10:54.905Z,58.09
2022-09-03T10:11:54.736Z,57.09
2022-09-03T10:12:55.868Z,57.39
2022-09-03T10:13:54.775Z,57.91
2022-09-03T10:14:54.876Z,55.96
2022-09-03T10:15:54.724Z,56.52
2022-09-03T10:16:54.709Z,56.12
2022-09-03T10:17:54.655Z,56.51
2022-09-03T10:18:54.887Z,56.15
2022-09-03T10:19:54.735Z,57.45
2022-09-03T10:20:54.783Z,58.58
2022-09-03T10:21:54.599Z,58.60
2022-09-03T10:22:56.759Z,58.69
2022-09-03T10:23:54.569Z,56.62
2022-09-03T10:24:54.789Z,57.99
2022-09-03T10:25:54.658Z,56.72
2022-09-03T10:26:54.581Z,57.91
2022-09-03T10:27:54.517Z,57.61
2022-09-03T10:28:56.901Z,56.36
2022-09-03T10:29:54.489Z,58.30
2022-09-03T10:30:54.585Z,57.68
2022-09-03T10:31:54.578Z,57.49
2022-09-03T10:32:54.588Z,56.91
2022-09-03T10:33:54.436Z,57.19
2022-09-03T10:34:54.520Z,57.37
2022-09-03T10:35:54.398Z,55.27
2022-09-03T10:36:54.537Z,54.89
2022-09-03T10:37:54.452Z,54.66
2022-09-03T10:38:54.489Z,55.42
2022-09-03T10:39:54.376Z,53.35
2022-09-03T10:40:54.421Z,54.16
2022-09-03T10:41:54.337Z,52.94
2022-09-03T10:42:54.539Z,53.50
2022-09-03T10:43:54.401Z,54.30
2022-09-03T10:44:54.400Z,54.59
2022-09-03T10:45:54.304Z,54.67
2022-09-03T10:46:54.362Z,53.41
2022-09-03T10:47:54.269Z,53.62
2022-09-03T10:48:54.412Z,53.07
2022-09-03T10:49:54.302Z,53.15
2022-09-03T10:50:54.231Z,54.25
2022-09-03T10:51:54.192Z,52.82
2022-09-03T10:52:54.341Z,51.82
2022-09-03T10:53:54.193Z,53.04
2022-09-03T10:54:54.383Z,53.99
2022-09-03T10:55:54.171Z,53.30
2022-09-03T10:56:55.309Z,52.23
2022-09-03T10:57:54.112Z,52.27
2022-09-03T10:58:54.253Z,52.26
2022-09-03T10:59:54.102Z,52.59
2022-09-03T11:00:54.280Z,50.88
2022-09-03T11:01:54.213Z,50.07
2022-09-03T11:02:55.331Z,50.16
2022-09-03T11:03:54.034Z,50.35
2022-09-03T11:04:54.102Z,50.41
2022-09-03T11:05:54.003Z,50.27
2022-09-03T11:06:56.185Z,49.89
2022-09-03T11:07:53.985Z,50.23
2022-09-03T11:08:56.125Z,50.77
2022-09-03T11:09:53.953Z,49.09
2022-09-03T11:10:54.114Z,49.60
2022-09-03T11:11:53.924Z,49.82
2022-09-03T11:12:53.995Z,50.10
2022-09-03T11:13:53.975Z,50.82
2022-09-03T11:14:54.027Z,50.58
2022-09-03T11:15:53.905Z,50.23
2022-09-03T11:16:54.016Z,48.78
2022-09-03T11:17:53.926Z,50.49
2022-09-03T11:18:54.016Z,51.97
2022-09-03T11:19:53.815Z,49.73
2022-09-03T11:20:56.130Z,51.03
2022-09-03T11:21:53.798Z,48.11
2022-09-03T11:22:53.947Z,48.81
2022-09-03T11:23:55.014Z,48.88
2022-09-03T11:24:53.906Z,49.59
2022-09-03T11:25:53.733Z,50.12
2022-09-03T11:26:53.836Z,48.48
2022-09-03T11:27:56.590Z,48.11
2022-09-03T11:28:53.738Z,51.28
2022-09-03T11:29:53.744Z,49.57
2022-09-03T11:30:53.859Z,48.75
2022-09-03T11:31:53.654Z,49.12
2022-09-03T11:32:55.530Z,50.21
2022-09-03T11:33:53.629Z,50.97
2022-09-03T11:34:54.755Z,49.42
2022-09-03T11:35:53.605Z,49.36
2022-09-03T11:37:15.697Z,49.73
2022-09-03T11:37:53.592Z,49.55
2022-09-03T11:38:53.750Z,47.80
2022-09-03T11:39:53.595Z,48.99
2022-09-03T11:40:53.709Z,49.30
2022-09-03T11:41:53.579Z,50.28
2022-09-03T11:42:53.621Z,47.98
2022-09-03T11:43:53.549Z,47.78
2022-09-03T11:44:53.659Z,47.83
2022-09-03T11:45:53.513Z,47.21
2022-09-03T11:46:53.676Z,47.86
2022-09-03T11:47:53.488Z,47.09
2022-09-03T11:48:54.650Z,47.66
2022-09-03T11:49:53.487Z,48.15
2022-09-03T11:50:53.560Z,48.45
2022-09-03T11:51:53.390Z,49.93
2022-09-03T11:52:53.621Z,47.06
2022-09-03T11:53:53.392Z,46.38
2022-09-03T11:55:14.482Z,47.42
2022-09-03T11:55:53.371Z,46.01
2022-09-03T11:56:53.341Z,46.29
2022-09-03T11:57:55.431Z,47.11
2022-09-03T11:58:53.433Z,46.44
2022-09-03T11:59:53.471Z,45.53
2022-09-03T12:00:53.275Z,46.77
2022-09-03T12:01:53.472Z,48.81
2022-09-03T12:02:58.129Z,47.93
2022-09-03T12:03:54.252Z,46.29
2022-09-03T12:04:53.519Z,47.41
2022-09-03T12:05:53.251Z,46.20
2022-09-03T12:06:53.345Z,47.50
2022-09-03T12:07:53.182Z,47.79
2022-09-03T12:08:53.373Z,47.25
2022-09-03T12:09:53.204Z,47.98
2022-09-03T12:10:55.308Z,46.15
2022-09-03T12:11:53.194Z,46.07
2022-09-03T12:12:53.257Z,47.46
2022-09-03T12:13:53.105Z,46.93
2022-09-03T12:14:53.287Z,47.25
2022-09-03T12:15:53.126Z,45.90
2022-09-03T12:16:53.295Z,46.15
2022-09-03T12:17:53.155Z,47.29
2022-09-03T12:18:53.188Z,45.52
2022-09-03T12:19:53.026Z,45.18
2022-09-03T12:20:53.097Z,47.82
2022-09-03T12:21:53.012Z,47.42
2022-09-03T12:22:55.168Z,45.14
2022-09-03T12:23:55.573Z,45.07
2022-09-03T12:24:53.957Z,46.87
2022-09-03T12:25:54.060Z,44.79
2022-09-03T12:26:52.990Z,45.62
2022-09-03T12:27:53.066Z,43.59
2022-09-03T12:28:52.898Z,44.08
2022-09-03T12:29:53.044Z,44.20
2022-09-03T12:30:52.954Z,44.30
2022-09-03T12:31:52.937Z,44.49
2022-09-03T12:32:52.937Z,44.33
2022-09-03T12:34:13.960Z,47.17
2022-09-03T12:34:52.831Z,45.22
2022-09-03T12:36:13.928Z,44.33
2022-09-03T12:36:52.843Z,45.26
2022-09-03T12:38:10.074Z,46.44
2022-09-03T12:39:11.617Z,45.19
2022-09-03T12:40:09.440Z,45.56
2022-09-03T12:41:53.845Z,46.75
2022-09-03T12:42:52.943Z,46.41
2022-09-03T12:43:52.974Z,44.78
2022-09-03T12:44:52.825Z,45.96
2022-09-03T12:47:34.104Z,47.22
2022-09-03T12:47:53.913Z,45.39
2022-09-03T12:49:53.683Z,45.53
2022-09-03T12:50:56.790Z,45.72
2022-09-03T12:51:56.725Z,45.45
2022-09-03T12:52:53.603Z,45.53
2022-09-03T12:54:13.723Z,45.41
2022-09-03T12:54:52.627Z,45.72
2022-09-03T12:55:52.711Z,46.19
2022-09-03T12:56:52.533Z,45.02